createdAt,value
2023-04-03T00:01:22.546Z,97072.56
2023-04-03T00:03:49.367Z,97073.78
2023-04-03T00:06:16.243Z,97087.41
2023-04-03T00:08:43.082Z,97079.41
2023-04-03T00:11:10.836Z,97074.59
2023-04-03T00:13:38.894Z,97080.25
2023-04-03T00:16:06.608Z,97083.63
2023-04-03T00:18:33.505Z,97082.91
2023-04-03T00:21:00.727Z,97080.13
2023-04-03T00:23:27.543Z,97074.56
2023-04-03T00:25:55.350Z,97075.84
2023-04-03T00:28:22.550Z,97070.28
2023-04-03T00:30:52.616Z,97076.53
2023-04-03T00:33:25.302Z,97082.59
2023-04-03T00:35:52.569Z,97071.25
2023-04-03T00:38:19.487Z,97068.50
2023-04-03T00:40:48.910Z,97076.97
2023-04-03T00:43:23.722Z,97076.56
2023-04-03T00:45:54.040Z,97076.06
2023-04-03T00:48:32.967Z,97085.78
2023-04-03T00:51:01.362Z,97074.09
2023-04-03T00:53:54.074Z,97070.19
2023-04-03T00:56:25.023Z,97074.69
2023-04-03T00:59:18.123Z,97077.56
2023-04-03T01:01:45.468Z,97071.00
2023-04-03T01:04:37.828Z,97073.16
2023-04-03T01:07:16.445Z,97072.84
2023-04-03T01:09:44.248Z,97077.16
2023-04-03T01:12:19.169Z,97074.19
2023-04-03T01:14:47.523Z,97074.06
2023-04-03T01:17:44.798Z,97074.25
2023-04-03T01:20:32.792Z,97080.03
2023-04-03T01:23:12.053Z,97076.13
2023-04-03T01:25:44.930Z,97082.09
2023-04-03T01:28:19.825Z,97075.41
2023-04-03T01:31:28.388Z,97073.97
2023-04-03T01:33:56.512Z,97078.81
2023-04-03T01:36:31.008Z,97078.53
2023-04-03T01:39:00.705Z,97083.97
2023-04-03T01:41:27.966Z,97081.09
2023-04-03T01:43:54.833Z,97078.00
2023-04-03T01:46:22.061Z,97086.19
2023-04-03T01:48:50.403Z,97087.56
2023-04-03T01:51:17.858Z,97089.97
2023-04-03T01:53:44.743Z,97096.94
2023-04-03T01:56:11.751Z,97089.13
2023-04-03T01:58:39.244Z,97080.94
2023-04-03T02:01:06.928Z,97083.91
2023-04-03T02:03:34.033Z,97087.53
2023-04-03T02:06:00.897Z,97090.47
2023-04-03T02:08:27.772Z,97083.91
2023-04-03T02:10:54.642Z,97085.97
2023-04-03T02:13:21.441Z,97076.06
2023-04-03T02:15:48.773Z,97079.19
2023-04-03T02:18:16.091Z,97075.03
2023-04-03T02:20:43.197Z,97074.25
2023-04-03T02:23:10.698Z,97076.53
2023-04-03T02:25:38.924Z,97070.81
2023-04-03T02:28:06.820Z,97071.03
2023-04-03T02:30:33.742Z,97075.03
2023-04-03T02:33:00.931Z,97070.09
2023-04-03T02:35:27.912Z,97074.41
2023-04-03T02:37:54.883Z,97068.56
2023-04-03T02:40:21.687Z,97076.16
2023-04-03T02:42:48.461Z,97080.06
2023-04-03T02:45:15.316Z,97077.31
2023-04-03T02:47:42.287Z,97073.88
2023-04-03T02:50:09.563Z,97069.19
2023-04-03T02:52:36.437Z,97072.91
2023-04-03T02:55:03.689Z,97077.06
2023-04-03T02:57:30.928Z,97080.69
2023-04-03T02:59:57.897Z,97072.69
2023-04-03T03:02:25.033Z,97070.63
2023-04-03T03:04:51.848Z,97082.53
2023-04-03T03:07:18.731Z,97075.44
2023-04-03T03:09:45.499Z,97074.19
2023-04-03T03:12:12.398Z,97084.34
2023-04-03T03:14:39.253Z,97077.16
2023-04-03T03:17:06.248Z,97081.91
2023-04-03T03:19:33.047Z,97078.66
2023-04-03T03:21:59.878Z,97078.00
2023-04-03T03:24:26.676Z,97080.13
2023-04-03T03:26:53.549Z,97071.28
2023-04-03T03:29:20.493Z,97077.50
2023-04-03T03:31:47.381Z,97065.59
2023-04-03T03:34:14.386Z,97074.81
2023-04-03T03:36:41.792Z,97078.81
2023-04-03T03:39:08.637Z,97074.22
2023-04-03T03:41:35.505Z,97080.59
2023-04-03T03:44:02.402Z,97081.69
2023-04-03T03:46:29.266Z,97084.75
2023-04-03T03:48:56.198Z,97082.13
2023-04-03T03:51:23.063Z,97084.25
2023-04-03T03:53:49.911Z,97084.75
2023-04-03T03:56:16.775Z,97090.56
2023-04-03T03:58:43.623Z,97081.56
2023-04-03T04:01:10.456Z,97081.91
2023-04-03T04:03:38.151Z,97086.69
2023-04-03T04:06:05.344Z,97091.31
2023-04-03T04:08:32.261Z,97083.22
2023-04-03T04:10:59.040Z,97083.84
2023-04-03T04:13:26.120Z,97094.91
2023-04-03T04:15:52.933Z,97086.25
2023-04-03T04:18:21.151Z,97087.75
2023-04-03T04:20:48.026Z,97079.84
2023-04-03T04:23:15.236Z,97088.72
2023-04-03T04:25:42.103Z,97092.84
2023-04-03T04:28:09.005Z,97089.69
2023-04-03T04:30:35.911Z,97091.81
2023-04-03T04:33:02.817Z,97094.28
2023-04-03T04:35:29.942Z,97094.28
2023-04-03T04:37:57.034Z,97101.16
2023-04-03T04:40:24.084Z,97093.97
2023-04-03T04:42:51.015Z,97096.94
2023-04-03T04:45:17.920Z,97102.81
2023-04-03T04:47:45.494Z,97105.44
2023-04-03T04:50:12.992Z,97106.78
2023-04-03T04:52:40.063Z,97110.38
2023-04-03T04:55:07.579Z,97113.94
2023-04-03T04:57:35.615Z,97111.00
2023-04-03T05:00:02.642Z,97110.66
2023-04-03T05:02:29.577Z,97108.44
2023-04-03T05:04:56.390Z,97109.75
2023-04-03T05:07:23.638Z,97103.69
2023-04-03T05:09:50.517Z,97110.09
2023-04-03T05:12:18.187Z,97107.59
2023-04-03T05:14:45.218Z,97113.34
2023-04-03T05:17:12.158Z,97120.16
2023-04-03T05:19:39.042Z,97109.59
2023-04-03T05:22:05.844Z,97115.13
2023-04-03T05:24:32.688Z,97124.31
2023-04-03T05:26:59.835Z,97129.81
2023-04-03T05:29:26.663Z,97126.59
2023-04-03T05:31:53.541Z,97118.69
2023-04-03T05:34:20.515Z,97128.13
2023-04-03T05:36:47.431Z,97120.09
2023-04-03T05:39:14.672Z,97122.72
2023-04-03T05:41:41.527Z,97123.84
2023-04-03T05:44:08.379Z,97114.78
2023-04-03T05:46:35.458Z,97118.75
2023-04-03T05:49:02.248Z,97123.50
2023-04-03T05:51:36.649Z,97121.06
2023-04-03T05:54:28.648Z,97125.94
2023-04-03T05:56:56.113Z,97125.34
2023-04-03T05:59:23.395Z,97121.16
2023-04-03T06:01:50.415Z,97123.69
2023-04-03T06:04:17.511Z,97121.91
2023-04-03T06:06:58.217Z,97122.44
2023-04-03T06:09:29.961Z,97136.53
2023-04-03T06:11:59.458Z,97127.22
2023-04-03T06:14:27.506Z,97136.97
2023-04-03T06:16:55.259Z,97135.41
2023-04-03T06:19:22.201Z,97131.00
2023-04-03T06:21:49.050Z,97135.75
2023-04-03T06:24:17.740Z,97135.25
2023-04-03T06:26:45.241Z,97142.19
2023-04-03T06:29:12.107Z,97138.72
2023-04-03T06:31:39.034Z,97135.69
2023-04-03T06:34:09.542Z,97150.72
2023-04-03T06:36:36.942Z,97149.09
2023-04-03T06:39:04.162Z,97146.81
2023-04-03T06:41:31.610Z,97144.06
2023-04-03T06:43:59.378Z,97146.16
2023-04-03T06:46:27.957Z,97154.97
2023-04-03T06:48:55.000Z,97146.19
2023-04-03T06:51:23.304Z,97148.16
2023-04-03T06:53:52.348Z,97146.84
2023-04-03T06:56:19.799Z,97151.75
2023-04-03T06:58:47.173Z,97145.19
2023-04-03T07:01:16.571Z,97151.09
2023-04-03T07:03:43.756Z,97148.97
2023-04-03T07:06:15.828Z,97160.91
2023-04-03T07:08:43.431Z,97151.75
2023-04-03T07:11:11.446Z,97153.72
2023-04-03T07:13:39.508Z,97154.69
2023-04-03T07:16:07.271Z,97159.28
2023-04-03T07:18:34.784Z,97163.84
2023-04-03T07:21:01.655Z,97173.41
2023-04-03T07:23:28.866Z,97174.50
2023-04-03T07:25:56.207Z,97169.59
2023-04-03T07:28:23.970Z,97167.78
2023-04-03T07:31:03.965Z,97181.22
2023-04-03T07:33:32.030Z,97179.59
2023-04-03T07:35:59.355Z,97178.44
2023-04-03T07:38:26.623Z,97186.16
2023-04-03T07:40:53.770Z,97193.03
2023-04-03T07:43:22.928Z,97193.50
2023-04-03T07:45:51.744Z,97194.00
2023-04-03T07:48:24.764Z,97197.00
2023-04-03T07:50:53.021Z,97202.25
2023-04-03T07:53:19.816Z,97189.38
2023-04-03T07:55:50.035Z,97200.47
2023-04-03T07:58:19.393Z,97189.31
2023-04-03T08:00:46.985Z,97193.44
2023-04-03T08:03:14.837Z,97202.97
2023-04-03T08:05:43.738Z,97200.50
2023-04-03T08:08:13.005Z,97194.00
2023-04-03T08:10:40.600Z,97200.06
2023-04-03T08:13:08.924Z,97197.22
2023-04-03T08:15:36.370Z,97197.41
2023-04-03T08:18:04.806Z,97199.75
2023-04-03T08:20:31.796Z,97205.72
2023-04-03T08:22:58.696Z,97192.97
2023-04-03T08:25:25.821Z,97193.56
2023-04-03T08:27:52.696Z,97193.28
2023-04-03T08:30:19.668Z,97195.59
2023-04-03T08:32:46.828Z,97205.50
2023-04-03T08:35:13.809Z,97195.19
2023-04-03T08:37:41.312Z,97200.81
2023-04-03T08:40:15.141Z,97203.06
2023-04-03T08:43:06.028Z,97205.81
2023-04-03T08:45:51.279Z,97202.06
2023-04-03T08:48:32.822Z,97196.47
2023-04-03T08:51:05.468Z,97206.66
2023-04-03T08:53:41.618Z,97204.16
2023-04-03T08:56:11.252Z,97203.25
2023-04-03T08:58:57.623Z,97208.03
2023-04-03T09:01:35.883Z,97198.97
2023-04-03T09:04:10.074Z,97197.50
2023-04-03T09:06:39.308Z,97206.31
2023-04-03T09:09:44.480Z,97206.53
2023-04-03T09:12:27.450Z,97210.75
2023-04-03T09:15:27.843Z,97206.47
2023-04-03T09:18:16.662Z,97212.72
2023-04-03T09:21:13.665Z,97213.63
2023-04-03T09:23:52.943Z,97200.63
2023-04-03T09:26:27.495Z,97209.53
2023-04-03T09:29:02.137Z,97211.47
2023-04-03T09:31:41.086Z,97215.94
2023-04-03T09:34:27.413Z,97212.00
2023-04-03T09:36:57.112Z,97214.28
2023-04-03T09:39:30.286Z,97213.75
2023-04-03T09:42:05.941Z,97204.38
2023-04-03T09:44:38.726Z,97202.09
2023-04-03T09:47:34.831Z,97196.66
2023-04-03T09:50:14.225Z,97205.78
2023-04-03T09:52:43.970Z,97206.66
2023-04-03T09:55:32.451Z,97203.09
2023-04-03T09:58:02.851Z,97210.16
2023-04-03T10:00:38.507Z,97203.75
2023-04-03T10:03:07.073Z,97212.31
2023-04-03T10:05:41.501Z,97201.50
2023-04-03T10:08:33.495Z,97196.91
2023-04-03T10:11:16.815Z,97195.28
2023-04-03T10:14:05.923Z,97196.69
2023-04-03T10:16:42.904Z,97196.19
2023-04-03T10:19:18.571Z,97190.72
2023-04-03T10:22:17.135Z,97197.63
2023-04-03T10:25:16.907Z,97192.75
2023-04-03T10:28:17.326Z,97190.41
2023-04-03T10:31:02.375Z,97202.66
2023-04-03T10:34:13.827Z,97200.00
2023-04-03T10:36:57.605Z,97189.84
2023-04-03T10:39:40.987Z,97196.72
2023-04-03T10:42:24.596Z,97198.66
2023-04-03T10:45:01.110Z,97194.22
2023-04-03T10:47:42.810Z,97194.75
2023-04-03T10:50:45.856Z,97202.84
2023-04-03T10:53:29.618Z,97196.16
2023-04-03T10:56:33.670Z,97199.66
2023-04-03T10:59:31.666Z,97186.06
2023-04-03T11:02:08.507Z,97193.66
2023-04-03T11:04:40.304Z,97206.53
2023-04-03T11:07:20.994Z,97189.00
2023-04-03T11:09:55.246Z,97189.56
2023-04-03T11:12:48.112Z,97185.69
2023-04-03T11:15:18.995Z,97179.34
2023-04-03T11:17:51.998Z,97187.66
2023-04-03T11:20:34.345Z,97177.06
2023-04-03T11:23:21.998Z,97180.41
2023-04-03T11:25:54.572Z,97166.28
2023-04-03T11:28:21.560Z,97169.75
2023-04-03T11:30:52.899Z,97162.81
2023-04-03T11:33:42.841Z,97174.41
2023-04-03T11:36:34.799Z,97160.69
2023-04-03T11:39:33.110Z,97162.25
2023-04-03T11:42:24.123Z,97167.66
2023-04-03T11:44:50.998Z,97162.44
2023-04-03T11:47:51.761Z,97158.25
2023-04-03T11:50:41.259Z,97155.91
2023-04-03T11:53:08.286Z,97152.97
2023-04-03T11:55:35.104Z,97153.78
2023-04-03T11:58:02.023Z,97147.56
2023-04-03T12:00:50.588Z,97146.78
2023-04-03T12:03:26.659Z,97138.09
2023-04-03T12:05:55.050Z,97137.66
2023-04-03T12:08:46.615Z,97135.66
2023-04-03T12:11:13.478Z,97135.72
2023-04-03T12:13:58.299Z,97135.84
2023-04-03T12:16:58.491Z,97142.69
2023-04-03T12:19:44.451Z,97136.56
2023-04-03T12:22:17.600Z,97139.91
2023-04-03T12:24:52.580Z,97136.31
2023-04-03T12:27:41.831Z,97137.38
2023-04-03T12:30:20.032Z,97143.81
2023-04-03T12:33:12.560Z,97138.28
2023-04-03T12:35:55.161Z,97139.09
2023-04-03T12:39:07.358Z,97138.06
2023-04-03T12:42:10.618Z,97138.31
2023-04-03T12:44:53.397Z,97133.44
2023-04-03T12:47:37.101Z,97127.63
2023-04-03T12:50:17.182Z,97132.44
2023-04-03T12:52:51.433Z,97116.31
2023-04-03T12:55:21.327Z,97126.19
2023-04-03T12:57:48.865Z,97103.16
2023-04-03T13:00:34.428Z,97111.84
2023-04-03T13:03:05.168Z,97107.22
2023-04-03T13:05:35.940Z,97108.41
2023-04-03T13:08:11.909Z,97103.75
2023-04-03T13:11:00.589Z,97100.28
2023-04-03T13:13:27.912Z,97091.03
2023-04-03T13:15:56.064Z,97090.81
2023-04-03T13:18:34.649Z,97100.66
2023-04-03T13:21:19.700Z,97097.78
2023-04-03T13:23:57.397Z,97086.31
2023-04-03T13:26:31.942Z,97090.41
2023-04-03T13:29:09.458Z,97103.47
2023-04-03T13:31:41.375Z,97097.50
2023-04-03T13:34:18.702Z,97100.94
2023-04-03T13:37:00.345Z,97110.44
2023-04-03T13:39:30.718Z,97103.56
2023-04-03T13:42:02.787Z,97106.00
2023-04-03T13:44:37.008Z,97105.03
2023-04-03T13:47:24.357Z,97108.06
2023-04-03T13:50:12.150Z,97101.78
2023-04-03T13:53:13.243Z,97098.09
2023-04-03T13:55:59.289Z,97102.06
2023-04-03T13:58:31.394Z,97108.84
2023-04-03T14:01:21.275Z,97103.06
2023-04-03T14:04:01.953Z,97095.75
2023-04-03T14:06:30.307Z,97084.47
2023-04-03T14:08:57.159Z,97076.69
2023-04-03T14:11:29.598Z,97077.06
2023-04-03T14:14:02.131Z,97073.31
2023-04-03T14:16:32.621Z,97076.22
2023-04-03T14:18:59.535Z,97077.28
2023-04-03T14:21:26.887Z,97082.63
2023-04-03T14:23:53.736Z,97083.97
2023-04-03T14:26:27.438Z,97084.75
2023-04-03T14:28:56.620Z,97074.03
2023-04-03T14:31:24.355Z,97080.00
2023-04-03T14:33:51.469Z,97068.94
2023-04-03T14:36:23.660Z,97070.31
2023-04-03T14:38:51.992Z,97072.53
2023-04-03T14:41:23.097Z,97065.16
2023-04-03T14:43:51.205Z,97069.56
2023-04-03T14:46:26.445Z,97067.38
2023-04-03T14:48:54.686Z,97072.56
2023-04-03T14:51:21.791Z,97076.47
2023-04-03T14:53:50.089Z,97071.06
2023-04-03T14:56:27.411Z,97071.63
2023-04-03T14:59:00.258Z,97067.94
2023-04-03T15:01:29.244Z,97060.78
2023-04-03T15:03:56.346Z,97062.19
2023-04-03T15:06:23.404Z,97066.75
2023-04-03T15:08:50.435Z,97071.63
2023-04-03T15:11:17.266Z,97069.31
2023-04-03T15:13:44.312Z,97064.72
2023-04-03T15:16:20.428Z,97068.47
2023-04-03T15:18:48.373Z,97067.91
2023-04-03T15:21:15.287Z,97068.69
2023-04-03T15:23:43.008Z,97073.63
2023-04-03T15:26:10.513Z,97075.34
2023-04-03T15:28:46.565Z,97080.31
2023-04-03T15:31:13.447Z,97081.41
2023-04-03T15:33:40.441Z,97068.22
2023-04-03T15:36:17.213Z,97082.53
2023-04-03T15:38:54.459Z,97073.56
2023-04-03T15:41:21.978Z,97071.34
2023-04-03T15:43:48.798Z,97071.88
2023-04-03T15:46:15.857Z,97079.28
2023-04-03T15:48:43.925Z,97092.34
2023-04-03T15:51:11.155Z,97086.00
2023-04-03T15:53:37.984Z,97095.44
2023-04-03T15:56:05.643Z,97092.78
2023-04-03T15:58:32.582Z,97091.44
2023-04-03T16:00:59.546Z,97089.41
2023-04-03T16:03:26.533Z,97084.50
2023-04-03T16:05:53.792Z,97088.63
2023-04-03T16:08:21.094Z,97084.84
2023-04-03T16:10:48.008Z,97093.53
2023-04-03T16:13:15.789Z,97095.03
2023-04-03T16:15:42.956Z,97097.09
2023-04-03T16:18:11.341Z,97097.84
2023-04-03T16:20:38.467Z,97103.19
2023-04-03T16:23:05.861Z,97107.41
2023-04-03T16:25:32.769Z,97104.88
2023-04-03T16:27:59.699Z,97102.19
2023-04-03T16:30:26.999Z,97105.00
2023-04-03T16:32:54.538Z,97106.25
2023-04-03T16:35:21.471Z,97099.59
2023-04-03T16:37:48.421Z,97111.69
2023-04-03T16:40:15.732Z,97119.75
2023-04-03T16:42:42.733Z,97118.13
2023-04-03T16:45:11.129Z,97116.91
2023-04-03T16:47:38.082Z,97113.97
2023-04-03T16:50:05.870Z,97122.19
2023-04-03T16:52:32.771Z,97128.44
2023-04-03T16:54:59.885Z,97127.16
2023-04-03T16:57:27.041Z,97123.66
2023-04-03T16:59:54.834Z,97134.41
2023-04-03T17:02:27.506Z,97133.44
2023-04-03T17:04:55.233Z,97132.94
2023-04-03T17:07:25.362Z,97137.06
2023-04-03T17:09:54.304Z,97141.81
2023-04-03T17:12:22.494Z,97138.94
2023-04-03T17:14:49.571Z,97138.78
2023-04-03T17:17:21.495Z,97135.19
2023-04-03T17:19:48.717Z,97132.00
2023-04-03T17:22:17.546Z,97124.78
2023-04-03T17:24:45.845Z,97137.31
2023-04-03T17:27:13.069Z,97139.41
2023-04-03T17:29:39.889Z,97136.38
2023-04-03T17:32:06.766Z,97134.22
2023-04-03T17:34:33.767Z,97136.34
2023-04-03T17:37:00.671Z,97135.38
2023-04-03T17:39:27.616Z,97145.22
2023-04-03T17:41:55.122Z,97145.50
2023-04-03T17:44:22.811Z,97148.78
2023-04-03T17:46:49.664Z,97145.22
2023-04-03T17:49:18.864Z,97148.31
2023-04-03T17:51:45.757Z,97157.00
2023-04-03T17:54:12.896Z,97148.47
2023-04-03T17:56:39.793Z,97145.84
2023-04-03T17:59:06.736Z,97157.63
2023-04-03T18:01:36.728Z,97153.06
2023-04-03T18:04:05.882Z,97155.38
2023-04-03T18:06:45.709Z,97148.31
2023-04-03T18:09:19.055Z,97158.63
2023-04-03T18:11:47.653Z,97166.81
2023-04-03T18:14:22.614Z,97169.91
2023-04-03T18:16:49.878Z,97169.13
2023-04-03T18:22:09.082Z,97173.34
2023-04-03T18:24:36.514Z,97172.16
2023-04-03T18:27:13.523Z,97181.78
2023-04-03T18:29:42.959Z,97178.13
2023-04-03T18:32:13.509Z,97179.78
2023-04-03T18:34:40.635Z,97193.72
2023-04-03T18:37:07.634Z,97180.34
2023-04-03T18:39:34.485Z,97190.25
2023-04-03T18:42:10.052Z,97190.31
2023-04-03T18:44:39.271Z,97190.50
2023-04-03T18:47:07.877Z,97182.59
2023-04-03T18:49:36.647Z,97187.97
2023-04-03T18:52:04.571Z,97191.13
2023-04-03T18:54:32.504Z,97193.97
2023-04-03T18:56:59.535Z,97206.09
2023-04-03T18:59:27.425Z,97201.47
2023-04-03T19:01:55.601Z,97200.63
2023-04-03T19:04:23.395Z,97204.28
2023-04-03T19:06:51.451Z,97209.22
2023-04-03T19:09:18.364Z,97207.59
2023-04-03T19:11:45.397Z,97214.91
2023-04-03T19:14:16.505Z,97204.63
2023-04-03T19:16:44.960Z,97208.78
2023-04-03T19:19:12.597Z,97206.47
2023-04-03T19:21:41.425Z,97203.22
2023-04-03T19:24:11.602Z,97208.28
2023-04-03T19:26:40.798Z,97205.75
2023-04-03T19:29:08.216Z,97205.88
2023-04-03T19:31:37.115Z,97213.25
2023-04-03T19:34:05.498Z,97212.56
2023-04-03T19:36:33.360Z,97210.72
2023-04-03T19:39:00.254Z,97218.09
2023-04-03T19:41:30.953Z,97205.75
2023-04-03T19:43:58.179Z,97210.25
2023-04-03T19:46:27.300Z,97212.91
2023-04-03T19:48:54.650Z,97209.09
2023-04-03T19:51:21.762Z,97220.84
2023-04-03T19:53:48.788Z,97219.25
2023-04-03T19:56:20.741Z,97217.06
2023-04-03T19:58:53.670Z,97213.63
2023-04-03T20:01:24.255Z,97223.13
2023-04-03T20:03:51.701Z,97212.91
2023-04-03T20:06:18.841Z,97218.00
2023-04-03T20:08:45.665Z,97216.69
2023-04-03T20:11:12.604Z,97219.97
2023-04-03T20:13:39.671Z,97220.53
2023-04-03T20:16:08.314Z,97218.44
2023-04-03T20:18:35.888Z,97217.03
2023-04-03T20:21:04.869Z,97220.34
2023-04-03T20:23:33.200Z,97224.88
2023-04-03T20:26:09.539Z,97210.25
2023-04-03T20:28:39.066Z,97211.66
2023-04-03T20:31:07.836Z,97213.59
2023-04-03T20:33:35.364Z,97214.81
2023-04-03T20:36:02.436Z,97216.38
2023-04-03T20:38:29.377Z,97215.41
2023-04-03T20:40:56.211Z,97215.03
2023-04-03T20:43:23.683Z,97211.25
2023-04-03T20:45:50.860Z,97220.25
2023-04-03T20:48:18.418Z,97210.66
2023-04-03T20:50:46.483Z,97213.97
2023-04-03T20:53:14.746Z,97211.34
2023-04-03T20:55:42.287Z,97214.97
2023-04-03T20:58:09.315Z,97211.41
2023-04-03T21:00:37.902Z,97213.38
2023-04-03T21:03:05.822Z,97207.75
2023-04-03T21:05:34.552Z,97203.84
2023-04-03T21:08:57.678Z,97207.66
2023-04-03T21:12:20.653Z,97208.75
2023-04-03T21:15:45.193Z,97209.81
2023-04-03T21:18:12.381Z,97206.53
2023-04-03T21:20:43.112Z,97206.78
2023-04-03T21:23:11.151Z,97199.56
2023-04-03T21:25:38.047Z,97205.72
2023-04-03T21:28:04.868Z,97205.16
2023-04-03T21:30:31.708Z,97202.59
2023-04-03T21:32:58.781Z,97202.47
2023-04-03T21:35:26.049Z,97208.75
2023-04-03T21:37:52.848Z,97201.19
2023-04-03T21:40:19.742Z,97206.53
2023-04-03T21:42:46.647Z,97214.31
2023-04-03T21:45:15.996Z,97210.63
2023-04-03T21:47:43.929Z,97215.41
2023-04-03T21:50:11.347Z,97219.81
2023-04-03T21:52:38.217Z,97210.91
2023-04-03T21:55:05.546Z,97215.03
2023-04-03T21:57:32.384Z,97211.31
2023-04-03T21:59:59.392Z,97216.50
2023-04-03T22:02:29.884Z,97214.09
2023-04-03T22:04:56.740Z,97208.06
2023-04-03T22:07:23.630Z,97207.50
2023-04-03T22:09:50.723Z,97214.09
2023-04-03T22:12:17.664Z,97206.94
2023-04-03T22:14:44.671Z,97202.31
2023-04-03T22:17:11.723Z,97201.34
2023-04-03T22:19:39.045Z,97202.56
2023-04-03T22:22:05.974Z,97208.31
2023-04-03T22:24:32.768Z,97209.53
2023-04-03T22:26:59.586Z,97207.38
2023-04-03T22:29:27.414Z,97210.78
2023-04-03T22:31:54.331Z,97213.00
2023-04-03T22:34:22.556Z,97205.72
2023-04-03T22:36:49.376Z,97206.94
2023-04-03T22:39:16.422Z,97201.75
2023-04-03T22:41:45.346Z,97193.81
2023-04-03T22:44:12.711Z,97206.25
2023-04-03T22:46:39.753Z,97205.56
2023-04-03T22:49:06.649Z,97197.06
2023-04-03T22:51:33.504Z,97203.38
2023-04-03T22:54:00.538Z,97195.94
2023-04-03T22:56:27.645Z,97201.72
2023-04-03T22:58:55.190Z,97206.09
2023-04-03T23:01:24.074Z,97198.28
2023-04-03T23:03:51.721Z,97205.72
2023-04-03T23:06:18.660Z,97204.19
2023-04-03T23:08:45.490Z,97203.06
2023-04-03T23:11:12.598Z,97211.00
2023-04-03T23:13:39.506Z,97203.06
2023-04-03T23:16:06.782Z,97206.25
2023-04-03T23:18:33.836Z,97208.28
2023-04-03T23:21:03.271Z,97204.72
2023-04-03T23:23:30.754Z,97207.72
2023-04-03T23:26:00.357Z,97208.53
2023-04-03T23:28:28.842Z,97199.50
2023-04-03T23:31:05.513Z,97201.13
2023-04-03T23:33:33.294Z,97208.81
2023-04-03T23:36:07.278Z,97209.34
2023-04-03T23:38:34.898Z,97192.09
2023-04-03T23:41:02.138Z,97193.88
2023-04-03T23:43:29.280Z,97187.97
2023-04-03T23:45:56.314Z,97192.88
2023-04-03T23:48:23.186Z,97182.34
2023-04-03T23:50:49.990Z,97182.19
2023-04-03T23:53:17.199Z,97185.38
2023-04-03T23:55:44.164Z,97188.22
2023-04-03T23:58:11.034Z,97183.00
